Orangeburg Municipal Airport Orangeburg US
ICAO: KOGB
IATA: OGB
Category: Medium
Scheduled Services: No

Elevation: 195 ft
TransAlt. 18000 ft.

Airport Communications:
COLUMBIA APP/DEP:124.15
ASOS:118.525
CTAF/UNICOM:122.7

KOGB Zoom In..

If you have problems with the map follow the link
https://www.worldairports.se/pages/airport.php?
ICAO=KOGB

Runways:

(A) RW 05 length 4508 ft width 100 ft
---- / hdg 49

(B) RW 17 length 5399 ft width 100 ft
---- / hdg 174

(C) RW 23 length 4508 ft width 100 ft
---- / hdg 229

(D) RW 35 length 5399 ft width 100 ft
---- / hdg 354

Location; KOGB
Day. 14 / Time. 21.33 Zulu
* Altimeter: 29.97
* Temperature: 17° c. 62.6°f.
* Wind from: 080° Speed 06 kn.
Dewpoint: 16° c.
Clouds: Broken 500 ft.
Clouds: Broken 3200 ft.
Clouds: Overcast 3900 ft.
Conditions: Light Rain.

KOGB 142133Z AUTO 08006KT -RA BKN005 BKN032 OVC039 17/16 A2997 RMK AO2 RAB26 P0000 T01670156 $


Wind From 080°
Speed 06 kn.

 
 
jpsmedia.com for Web Design worldairports.se 2018   terms of use